Current Weather

City

City, United Kingdom (EGLC)

Report from: Monday, September 26, 2022 2:50 AM BST
Current time: Monday, September 26, 2022 3:31 AM BST

Nearby weather
Weather history
Weather forecast

Temperature12.0°C (53.6°F)
Dew point7.0°C (44.6°F)
Winds 10 kts (5.1 m/s, 11.5 mph) Southwest (230°)
Visibility6.2 mi. (10 km)
Clouds Scattered clouds 3,100 ft. (945 m)
Altimeter29.74 in.Hg (1007 mB)
Relative humidity71 %
Density altitude-0 ft. (-0 m)
Remarks Fully automated report
Flight conditions Visual Meteorological Conditions
Raw dataEGLC 260150Z AUTO 23010KT 9999 SCT031 12/07 Q1007
An error has occurred. This application may no longer respond until reloaded. Reload 🗙